Date,TemperatureHighF,TemperatureAvgF,TemperatureLowF,DewpointHighF,DewpointAvgF,DewpointLowF,HumidityHigh,HumidityAvg,HumidityLow,PressureMaxIn,PressureMinIn,WindSpeedMaxMPH,WindSpeedAvgMPH,GustSpeedMaxMPH,PrecipitationSumIn
2013-3-1,71.1,54.5,44.2,56.0,48.5,43.0,96,82,49,30.45,30.27,5,0,7,0.01
2013-3-2,68.7,56.9,48.8,53.0,49.8,47.0,94,79,56,30.28,30.08,2,0,7,0.00
2013-3-3,63.8,51.9,42.2,50.0,46.2,40.0,94,82,58,30.09,30.02,4,0,10,0.00
2013-3-4,52.5,43.8,36.0,49.0,41.8,35.0,96,92,82,30.16,30.07,6,0,6,0.00
2013-3-5,50.2,43.6,35.7,45.0,40.7,34.0,96,89,78,30.09,29.80,15,1,23,0.47
2013-3-6,51.4,43.9,36.0,46.0,41.3,35.0,95,90,72,30.08,29.82,18,1,24,0.28
2013-3-7,51.4,42.1,34.6,43.0,37.9,33.0,96,86,57,30.02,29.91,2,0,6,0.00
2013-3-8,60.4,43.8,34.2,45.0,38.1,33.0,96,82,46,30.07,29.88,5,0,11,0.00
2013-3-9,66.3,47.3,34.6,47.0,38.9,33.0,96,77,30,30.36,30.07,2,0,8,0.01
2013-3-10,68.8,52.3,39.1,44.0,37.8,27.0,92,63,23,30.36,30.27,4,0,8,0.00
2013-3-11,69.5,53.2,42.7,50.0,41.8,38.0,88,68,36,30.28,30.13,5,0,8,0.00
2013-3-12,72.5,56.1,43.9,56.0,48.3,42.0,100,77,48,30.17,30.10,5,0,7,0.00
2013-3-13,75.6,58.3,48.2,57.0,50.9,46.0,98,79,44,30.18,30.09,3,0,8,0.00
2013-3-14,70.1,57.7,47.3,57.0,49.5,42.0,95,76,49,30.18,30.09,4,0,9,0.00
2013-3-15,72.7,55.9,44.1,54.0,46.2,41.0,90,72,42,30.15,30.05,4,0,7,0.00
2013-3-16,71.8,55.6,43.3,48.0,43.1,37.0,95,67,30,30.14,30.03,5,0,11,0.00
2013-3-17,67.4,51.0,38.5,45.0,40.6,36.0,94,70,32,30.16,30.06,5,0,11,0.00
2013-3-18,64.9,51.7,39.6,51.0,42.7,37.0,93,73,43,30.14,30.05,5,0,7,0.00
2013-3-19,59.4,49.7,42.4,50.0,42.7,37.0,94,78,51,30.15,30.07,3,0,5,0.10
2013-3-20,54.9,49.4,45.1,54.0,48.0,44.0,95,95,92,30.16,30.07,5,0,8,0.54
2013-3-21,61.7,46.5,35.4,50.0,41.7,34.0,96,85,56,30.16,30.05,4,0,7,0.00
2013-3-22,65.2,48.9,34.8,41.0,33.6,23.0,95,61,27,30.16,30.07,4,0,8,0.00
2013-3-23,65.4,50.2,35.9,42.0,36.3,29.0,89,62,31,30.16,30.07,4,0,7,0.00
2013-3-24,68.5,53.3,40.6,50.0,42.9,37.0,91,70,44,30.10,29.99,7,0,10,0.00
2013-3-25,56.7,47.1,37.8,47.0,42.0,36.0,94,83,65,30.02,29.96,9,1,10,0.00
2013-3-26,64.0,49.3,40.2,50.0,43.5,39.0,95,82,53,30.02,29.96,5,1,10,0.00
2013-3-27,58.0,49.5,41.7,52.0,46.7,40.0,96,90,76,30.04,29.96,4,0,5,0.00
2013-3-28,57.6,50.7,44.0,55.0,48.8,42.0,95,93,82,30.12,30.03,2,0,7,0.09
2013-3-29,73.8,57.8,44.9,55.0,49.7,44.0,96,77,40,30.11,30.05,5,0,10,0.01
2013-3-30,63.1,54.7,51.1,56.0,50.3,48.0,94,85,70,30.08,30.01,3,0,9,0.15
2013-3-31,60.5,52.6,48.2,55.0,50.9,47.0,96,94,77,30.09,30.02,3,0,7,0.83